| Date | Time | Temp. (oF) | Dew Point (oF) | Rel. Hum. (%) | Press. (in.) | Wind Dir. | Wind Speed (mph) | Hourly Rainfall (in.) |
|
|---|---|---|---|---|---|---|---|---|---|
| 1 | 11/06 | 00:00 | 49 | 49 | 100 | 30.03 | NNE | 3 | 0.00 |
| 2 | 11/05 | 23:00 | 50 | 50 | 100 | 30.06 | NNE | 5 | 0.01 |
| 3 | 11/05 | 22:00 | 50 | 50 | 100 | 30.08 | NE | 2 | 0.00 |
| 4 | 11/05 | 21:00 | 50 | 50 | 100 | 30.06 | NE | 2 | 0.01 |
| 5 | 11/05 | 20:00 | 50 | 50 | 100 | 30.08 | N | 5 | 0.02 |
| 6 | 11/05 | 19:00 | 51 | 50 | 100 | 30.09 | ENE | 4 | 0.01 |
| 7 | 11/05 | 18:00 | 51 | 50 | 100 | 30.08 | E | 5 | 0.03 |
| 8 | 11/05 | 17:00 | 52 | 51 | 100 | 30.09 | ENE | 9 | 0.03 |
| 9 | 11/05 | 16:00 | 52 | 51 | 100 | 30.10 | NNE | 2 | 0.06 |
| 10 | 11/05 | 15:00 | 52 | 51 | 100 | 30.10 | NE | 5 | 0.00 |
| 11 | miss | miss | miss | miss | miss | miss | miss | miss | |
| 12 | 11/05 | 15:40 | 52 | 51 | 100 | 30.10 | NE | 3 | -0.01 |
| 13 | miss | miss | miss | miss | miss | miss | miss | miss | |
| 14 | 11/05 | 15:38 | 52 | 51 | 100 | 30.10 | N | 7 | -0.01 |
| 15 | miss | miss | miss | miss | miss | miss | miss | miss | |
| 16 | 11/05 | 15:36 | 52 | 51 | 100 | 30.10 | N | 3 | -0.01 |
| 17 | miss | miss | miss | miss | miss | miss | miss | miss | |
| 18 | 11/05 | 15:34 | 52 | 51 | 100 | 30.10 | N | 4 | -0.01 |
| 19 | miss | miss | miss | miss | miss | miss | miss | miss | |
| 20 | 11/05 | 15:32 | 52 | 51 | 100 | 30.11 | N | 4 | -0.01 |
| 21 | miss | miss | miss | miss | miss | miss | miss | miss | |
| 22 | 11/05 | 15:30 | 52 | 51 | 100 | 30.11 | NE | 2 | -0.02 |
| 23 | miss | miss | miss | miss | miss | miss | miss | miss | |
| 24 | 11/05 | 15:28 | 52 | 51 | 100 | 30.11 | NNW | 2 | -0.02 |
| 25 | miss | miss | miss | miss | miss | miss | miss | miss | |
| 26 | 11/05 | 15:27 | 52 | 51 | 100 | 30.11 | NNW | 3 | -0.02 |
| 27 | miss | miss | miss | miss | miss | miss | miss | miss | |
| 28 | 11/05 | 15:27 | 52 | 51 | 100 | 30.11 | NNW | 3 | -0.02 |
| 29 | miss | miss | miss | miss | miss | miss | miss | miss | |
| 30 | 11/05 | 15:27 | 52 | 51 | 100 | 30.11 | NNW | 3 | -0.02 |
| 31 | miss | miss | miss | miss | miss | miss | miss | miss | |
| 32 | 11/05 | 15:27 | 52 | 51 | 100 | 30.11 | NNW | 3 | -0.02 |
| 33 | miss | miss | miss | miss | miss | miss | miss | miss | |
| 34 | 11/05 | 15:00 | 51 | 50 | 100 | 30.11 | N | 2 | 0.05 |
| 35 | 11/05 | 14:00 | 50 | 50 | 100 | 30.14 | NE | 4 | 0.06 |
| 36 | 11/05 | 13:00 | 48 | 48 | 100 | 30.18 | N | 1 | 0.06 |
| 37 | 11/05 | 12:00 | 47 | 46 | 99 | 30.23 | NNW | 9 | 0.19 |
| 38 | 11/05 | 11:00 | 49 | 49 | 100 | 30.22 | W | 6 | 0.00 |
| 39 | 11/05 | 10:00 | 47 | 46 | 99 | 30.23 | ENE | 7 | 0.02 |
| 40 | 11/05 | 09:00 | 45 | 44 | 98 | 30.27 | NNE | 1 | 0.05 |
| 41 | 11/05 | 08:00 | 45 | 43 | 96 | 30.28 | NNE | 5 | 0.08 |
| 42 | 11/05 | 07:00 | 46 | 43 | 90 | 30.30 | NE | 4 | 0.01 |
| 43 | 11/05 | 06:00 | 45 | 41 | 89 | 30.31 | ENE | 7 | 0.00 |
| 44 | 11/05 | 05:00 | 44 | 41 | 90 | 30.31 | ENE | 2 | 0.00 |
| 45 | 11/05 | 04:00 | 44 | 40 | 89 | 30.34 | ENE | 4 | 0.00 |
| 46 | 11/05 | 03:00 | 43 | 39 | 89 | 30.37 | ENE | 5 | 0.00 |
| 47 | 11/05 | 02:00 | 43 | 39 | 87 | 30.39 | ENE | 3 | 0.00 |
| 48 | 11/05 | 01:00 | 44 | 39 | 85 | 30.41 | ESE | 3 | 0.00 |
| 49 | 11/05 | 00:00 | 42 | 37 | 85 | 30.43 | ESE | 7 | -0.72 |
| 50 | 11/04 | 23:00 | 42 | 36 | 80 | 30.44 | E | 2 | 0.00 |
| 51 | 11/04 | 22:00 | 41 | 34 | 78 | 30.43 | SE | 2 | 0.00 |
| 52 | 11/04 | 21:00 | 40 | 34 | 79 | 30.43 | ESE | 1 | 0.00 |
| 53 | 11/04 | 20:00 | 43 | 33 | 68 | 30.43 | NE | 4 | 0.00 |
| 54 | 11/04 | 19:00 | 46 | 32 | 59 | 30.42 | SE | 0 | 0.00 |
| 55 | 11/04 | 18:00 | 51 | 33 | 52 | 30.42 | SSE | 2 | 0.00 |
| 56 | 11/04 | 17:00 | 53 | 33 | 48 | 30.42 | ESE | 3 | 0.00 |
| 57 | 11/04 | 16:00 | 55 | 34 | 46 | 30.42 | S | 4 | 0.00 |
| 58 | 11/04 | 15:00 | 56 | 37 | 49 | 30.43 | ESE | 4 | 0.00 |
| 59 | 11/04 | 14:00 | 54 | 36 | 51 | 30.46 | E | 4 | 0.00 |
| 60 | 11/04 | 13:00 | 51 | 33 | 52 | 30.51 | NE | 1 | 0.00 |
| 61 | 11/04 | 12:00 | 50 | 35 | 57 | 30.54 | E | 10 | 0.00 |
| 62 | 11/04 | 11:00 | 49 | 37 | 65 | 30.55 | NE | 3 | 0.00 |
| 63 | 11/04 | 10:00 | 43 | 39 | 87 | 30.54 | SE | 2 | 0.00 |
| 64 | 11/04 | 09:00 | 35 | 34 | 99 | 30.54 | S | 1 | 0.00 |
| 65 | 11/04 | 08:00 | 32 | 31 | 97 | 30.52 | S | 2 | 0.00 |
| 66 | 11/04 | 07:00 | 32 | 30 | 95 | 30.50 | S | 1 | 0.00 |
| 67 | 11/04 | 06:00 | 32 | 30 | 94 | 30.47 | S | 1 | 0.00 |
| 68 | 11/04 | 05:00 | 34 | 31 | 91 | 30.43 | NW | 1 | 0.00 |
| 69 | 11/04 | 04:00 | 35 | 30 | 85 | 30.42 | NW | 0 | 0.00 |
| 70 | 11/04 | 03:00 | 38 | 32 | 80 | 30.41 | NW | 1 | 0.00 |
| 71 | 11/04 | 02:00 | 39 | 31 | 75 | 30.40 | WNW | 4 | 0.00 |
| 72 | 11/04 | 01:00 | 40 | 32 | 73 | 30.40 | NW | 4 | 0.00 |